sensor_id;sensor_type;location;lat;lon;timestamp;P1;durP1;ratioP1;P2;durP2;ratioP2
7045;SDS011;3564;53.326;10.356;2022-09-20T00:00:36;4.60;;;1.73;;
7045;SDS011;3564;53.326;10.356;2022-09-20T00:03:03;10.53;;;2.43;;
7045;SDS011;3564;53.326;10.356;2022-09-20T00:05:28;5.73;;;1.93;;
7045;SDS011;3564;53.326;10.356;2022-09-20T00:07:54;4.53;;;1.83;;
7045;SDS011;3564;53.326;10.356;2022-09-20T00:10:19;5.77;;;2.00;;
7045;SDS011;3564;53.326;10.356;2022-09-20T00:12:48;8.77;;;2.30;;
7045;SDS011;3564;53.326;10.356;2022-09-20T00:15:14;7.73;;;2.20;;
7045;SDS011;3564;53.326;10.356;2022-09-20T00:17:39;6.80;;;2.20;;
7045;SDS011;3564;53.326;10.356;2022-09-20T00:20:05;7.07;;;2.60;;
7045;SDS011;3564;53.326;10.356;2022-09-20T00:22:31;4.77;;;2.20;;
7045;SDS011;3564;53.326;10.356;2022-09-20T00:24:57;6.73;;;2.17;;
7045;SDS011;3564;53.326;10.356;2022-09-20T00:27:22;5.50;;;2.23;;
7045;SDS011;3564;53.326;10.356;2022-09-20T00:29:48;7.57;;;2.37;;
7045;SDS011;3564;53.326;10.356;2022-09-20T00:32:13;6.13;;;2.20;;
7045;SDS011;3564;53.326;10.356;2022-09-20T00:34:39;5.40;;;2.20;;
7045;SDS011;3564;53.326;10.356;2022-09-20T00:37:23;5.67;;;2.10;;
7045;SDS011;3564;53.326;10.356;2022-09-20T00:39:48;6.40;;;2.30;;
7045;SDS011;3564;53.326;10.356;2022-09-20T00:42:14;4.50;;;1.97;;
7045;SDS011;3564;53.326;10.356;2022-09-20T00:44:40;7.17;;;2.17;;
7045;SDS011;3564;53.326;10.356;2022-09-20T00:47:21;11.83;;;2.57;;
7045;SDS011;3564;53.326;10.356;2022-09-20T00:53:08;8.90;;;1.97;;
7045;SDS011;3564;53.326;10.356;2022-09-20T00:55:53;7.33;;;2.40;;
7045;SDS011;3564;53.326;10.356;2022-09-20T00:58:36;7.57;;;2.70;;
7045;SDS011;3564;53.326;10.356;2022-09-20T01:01:06;6.70;;;1.97;;
7045;SDS011;3564;53.326;10.356;2022-09-20T01:03:33;5.53;;;2.20;;
7045;SDS011;3564;53.326;10.356;2022-09-20T01:06:01;5.93;;;1.90;;
7045;SDS011;3564;53.326;10.356;2022-09-20T01:08:30;5.67;;;2.17;;
7045;SDS011;3564;53.326;10.356;2022-09-20T01:10:57;5.20;;;2.00;;
7045;SDS011;3564;53.326;10.356;2022-09-20T01:13:24;6.80;;;2.27;;
7045;SDS011;3564;53.326;10.356;2022-09-20T01:15:49;7.03;;;1.90;;
7045;SDS011;3564;53.326;10.356;2022-09-20T01:18:16;7.43;;;2.40;;
7045;SDS011;3564;53.326;10.356;2022-09-20T01:20:43;5.93;;;2.10;;
7045;SDS011;3564;53.326;10.356;2022-09-20T01:29:11;4.20;;;1.50;;
7045;SDS011;3564;53.326;10.356;2022-09-20T01:32:00;9.20;;;1.70;;
7045;SDS011;3564;53.326;10.356;2022-09-20T01:34:31;5.00;;;1.70;;
7045;SDS011;3564;53.326;10.356;2022-09-20T01:37:18;5.13;;;2.17;;
7045;SDS011;3564;53.326;10.356;2022-09-20T01:40:02;4.53;;;2.10;;
7045;SDS011;3564;53.326;10.356;2022-09-20T01:43:03;7.87;;;2.17;;
7045;SDS011;3564;53.326;10.356;2022-09-20T01:45:46;6.57;;;2.10;;
7045;SDS011;3564;53.326;10.356;2022-09-20T01:53:57;5.73;;;1.93;;
7045;SDS011;3564;53.326;10.356;2022-09-20T02:05:18;3.37;;;1.90;;
7045;SDS011;3564;53.326;10.356;2022-09-20T02:18:30;5.17;;;2.03;;
7045;SDS011;3564;53.326;10.356;2022-09-20T02:21:03;6.07;;;2.10;;
7045;SDS011;3564;53.326;10.356;2022-09-20T02:23:39;6.30;;;2.03;;
7045;SDS011;3564;53.326;10.356;2022-09-20T02:26:20;7.33;;;2.20;;
7045;SDS011;3564;53.326;10.356;2022-09-20T02:29:14;5.13;;;2.27;;
7045;SDS011;3564;53.326;10.356;2022-09-20T02:45:59;6.20;;;2.13;;
7045;SDS011;3564;53.326;10.356;2022-09-20T02:49:16;4.07;;;2.23;;
7045;SDS011;3564;53.326;10.356;2022-09-20T02:54:27;3.50;;;2.00;;
7045;SDS011;3564;53.326;10.356;2022-09-20T02:57:13;7.70;;;2.33;;
7045;SDS011;3564;53.326;10.356;2022-09-20T02:59:46;3.13;;;1.93;;
7045;SDS011;3564;53.326;10.356;2022-09-20T03:02:29;6.90;;;2.20;;
7045;SDS011;3564;53.326;10.356;2022-09-20T03:07:42;4.13;;;2.20;;
7045;SDS011;3564;53.326;10.356;2022-09-20T03:18:17;5.53;;;2.50;;
7045;SDS011;3564;53.326;10.356;2022-09-20T03:21:00;2.90;;;1.70;;
7045;SDS011;3564;53.326;10.356;2022-09-20T03:29:01;6.20;;;2.67;;
7045;SDS011;3564;53.326;10.356;2022-09-20T03:36:56;4.47;;;2.43;;
7045;SDS011;3564;53.326;10.356;2022-09-20T03:39:30;6.20;;;2.17;;
7045;SDS011;3564;53.326;10.356;2022-09-20T03:58:23;2.00;;;1.77;;
7045;SDS011;3564;53.326;10.356;2022-09-20T04:03:35;2.43;;;1.70;;
7045;SDS011;3564;53.326;10.356;2022-09-20T04:20:35;4.80;;;2.30;;
7045;SDS011;3564;53.326;10.356;2022-09-20T04:23:14;4.67;;;2.50;;
7045;SDS011;3564;53.326;10.356;2022-09-20T04:25:49;3.33;;;2.40;;
7045;SDS011;3564;53.326;10.356;2022-09-20T04:31:13;3.63;;;2.60;;
7045;SDS011;3564;53.326;10.356;2022-09-20T04:33:51;6.20;;;2.50;;
7045;SDS011;3564;53.326;10.356;2022-09-20T04:39:04;2.43;;;2.23;;
7045;SDS011;3564;53.326;10.356;2022-09-20T04:44:48;3.80;;;2.73;;
7045;SDS011;3564;53.326;10.356;2022-09-20T04:59:07;4.27;;;3.10;;
7045;SDS011;3564;53.326;10.356;2022-09-20T05:22:08;4.40;;;3.60;;
7045;SDS011;3564;53.326;10.356;2022-09-20T05:32:31;3.53;;;2.80;;
7045;SDS011;3564;53.326;10.356;2022-09-20T05:35:37;4.80;;;3.07;;
7045;SDS011;3564;53.326;10.356;2022-09-20T05:38:23;3.80;;;2.90;;
7045;SDS011;3564;53.326;10.356;2022-09-20T05:46:35;3.80;;;2.60;;
7045;SDS011;3564;53.326;10.356;2022-09-20T05:49:17;3.87;;;2.97;;
7045;SDS011;3564;53.326;10.356;2022-09-20T05:52:18;3.10;;;2.70;;
7045;SDS011;3564;53.326;10.356;2022-09-20T05:54:58;3.80;;;3.00;;
7045;SDS011;3564;53.326;10.356;2022-09-20T06:00:48;3.03;;;2.73;;
7045;SDS011;3564;53.326;10.356;2022-09-20T06:03:33;4.70;;;3.00;;
7045;SDS011;3564;53.326;10.356;2022-09-20T06:06:25;4.80;;;3.30;;
7045;SDS011;3564;53.326;10.356;2022-09-20T06:17:43;5.57;;;4.20;;
7045;SDS011;3564;53.326;10.356;2022-09-20T06:23:16;4.43;;;3.83;;
7045;SDS011;3564;53.326;10.356;2022-09-20T06:26:03;5.57;;;4.20;;
7045;SDS011;3564;53.326;10.356;2022-09-20T06:28:38;6.03;;;4.57;;
7045;SDS011;3564;53.326;10.356;2022-09-20T06:31:24;6.93;;;4.17;;
7045;SDS011;3564;53.326;10.356;2022-09-20T06:33:52;6.40;;;4.13;;
7045;SDS011;3564;53.326;10.356;2022-09-20T06:36:29;6.83;;;4.23;;
7045;SDS011;3564;53.326;10.356;2022-09-20T06:39:33;6.20;;;4.20;;
7045;SDS011;3564;53.326;10.356;2022-09-20T06:42:36;6.20;;;3.83;;
7045;SDS011;3564;53.326;10.356;2022-09-20T06:45:02;6.40;;;4.10;;
7045;SDS011;3564;53.326;10.356;2022-09-20T06:47:28;5.30;;;3.97;;
7045;SDS011;3564;53.326;10.356;2022-09-20T06:49:53;7.27;;;4.00;;
7045;SDS011;3564;53.326;10.356;2022-09-20T06:52:20;5.97;;;3.97;;
7045;SDS011;3564;53.326;10.356;2022-09-20T06:54:47;6.67;;;3.83;;
7045;SDS011;3564;53.326;10.356;2022-09-20T06:57:18;7.57;;;3.80;;
7045;SDS011;3564;53.326;10.356;2022-09-20T06:59:48;5.90;;;3.70;;
7045;SDS011;3564;53.326;10.356;2022-09-20T07:02:14;5.73;;;3.60;;
7045;SDS011;3564;53.326;10.356;2022-09-20T07:04:41;7.83;;;4.10;;
7045;SDS011;3564;53.326;10.356;2022-09-20T07:07:11;4.87;;;3.77;;
7045;SDS011;3564;53.326;10.356;2022-09-20T07:09:41;10.33;;;4.07;;
7045;SDS011;3564;53.326;10.356;2022-09-20T07:12:07;6.67;;;3.77;;
7045;SDS011;3564;53.326;10.356;2022-09-20T07:14:35;7.73;;;4.23;;
7045;SDS011;3564;53.326;10.356;2022-09-20T07:17:02;6.77;;;4.43;;
7045;SDS011;3564;53.326;10.356;2022-09-20T07:19:28;7.30;;;3.80;;
7045;SDS011;3564;53.326;10.356;2022-09-20T07:21:53;7.80;;;3.70;;
7045;SDS011;3564;53.326;10.356;2022-09-20T07:24:21;7.07;;;3.90;;
7045;SDS011;3564;53.326;10.356;2022-09-20T07:26:55;6.27;;;3.20;;
7045;SDS011;3564;53.326;10.356;2022-09-20T07:29:25;6.23;;;3.77;;
7045;SDS011;3564;53.326;10.356;2022-09-20T07:31:52;6.33;;;3.10;;
7045;SDS011;3564;53.326;10.356;2022-09-20T07:34:18;8.37;;;3.63;;
7045;SDS011;3564;53.326;10.356;2022-09-20T07:36:46;8.00;;;3.13;;
7045;SDS011;3564;53.326;10.356;2022-09-20T07:39:13;5.80;;;2.90;;
7045;SDS011;3564;53.326;10.356;2022-09-20T07:41:39;6.13;;;3.37;;
7045;SDS011;3564;53.326;10.356;2022-09-20T07:44:05;8.40;;;3.50;;
7045;SDS011;3564;53.326;10.356;2022-09-20T07:46:51;6.47;;;3.50;;
7045;SDS011;3564;53.326;10.356;2022-09-20T07:49:18;5.30;;;3.17;;
7045;SDS011;3564;53.326;10.356;2022-09-20T07:52:04;4.37;;;2.87;;
7045;SDS011;3564;53.326;10.356;2022-09-20T07:54:30;9.20;;;3.20;;
7045;SDS011;3564;53.326;10.356;2022-09-20T07:56:55;7.93;;;3.03;;
7045;SDS011;3564;53.326;10.356;2022-09-20T07:59:21;6.83;;;3.20;;
7045;SDS011;3564;53.326;10.356;2022-09-20T08:01:46;7.03;;;3.23;;
7045;SDS011;3564;53.326;10.356;2022-09-20T08:04:12;6.00;;;3.10;;
7045;SDS011;3564;53.326;10.356;2022-09-20T08:06:39;5.17;;;2.37;;
7045;SDS011;3564;53.326;10.356;2022-09-20T08:09:09;12.43;;;3.27;;
7045;SDS011;3564;53.326;10.356;2022-09-20T08:11:35;10.37;;;3.53;;
7045;SDS011;3564;53.326;10.356;2022-09-20T08:14:02;5.67;;;2.83;;
7045;SDS011;3564;53.326;10.356;2022-09-20T08:16:28;7.17;;;2.87;;
7045;SDS011;3564;53.326;10.356;2022-09-20T08:21:44;7.37;;;3.30;;
7045;SDS011;3564;53.326;10.356;2022-09-20T08:24:10;8.73;;;3.53;;
7045;SDS011;3564;53.326;10.356;2022-09-20T08:26:38;6.43;;;2.73;;
7045;SDS011;3564;53.326;10.356;2022-09-20T08:29:04;8.47;;;3.20;;
7045;SDS011;3564;53.326;10.356;2022-09-20T08:31:30;5.73;;;2.80;;
7045;SDS011;3564;53.326;10.356;2022-09-20T08:33:59;4.90;;;2.53;;
7045;SDS011;3564;53.326;10.356;2022-09-20T08:36:30;6.20;;;2.40;;
7045;SDS011;3564;53.326;10.356;2022-09-20T08:38:57;10.03;;;2.70;;
7045;SDS011;3564;53.326;10.356;2022-09-20T08:41:30;8.60;;;2.70;;
7045;SDS011;3564;53.326;10.356;2022-09-20T08:44:10;7.33;;;2.57;;
7045;SDS011;3564;53.326;10.356;2022-09-20T08:46:41;5.53;;;2.30;;
7045;SDS011;3564;53.326;10.356;2022-09-20T08:49:12;9.10;;;2.90;;
7045;SDS011;3564;53.326;10.356;2022-09-20T08:51:50;6.53;;;2.17;;
7045;SDS011;3564;53.326;10.356;2022-09-20T08:54:15;7.77;;;2.00;;
7045;SDS011;3564;53.326;10.356;2022-09-20T08:56:42;5.37;;;2.33;;
7045;SDS011;3564;53.326;10.356;2022-09-20T08:59:13;5.97;;;2.23;;
7045;SDS011;3564;53.326;10.356;2022-09-20T09:01:42;7.43;;;3.00;;
7045;SDS011;3564;53.326;10.356;2022-09-20T09:04:14;7.50;;;2.00;;
7045;SDS011;3564;53.326;10.356;2022-09-20T09:06:45;8.27;;;2.60;;
7045;SDS011;3564;53.326;10.356;2022-09-20T09:09:21;7.53;;;2.07;;
7045;SDS011;3564;53.326;10.356;2022-09-20T09:11:52;10.00;;;2.43;;
7045;SDS011;3564;53.326;10.356;2022-09-20T09:14:32;8.23;;;2.33;;
7045;SDS011;3564;53.326;10.356;2022-09-20T09:17:28;4.93;;;1.73;;
7045;SDS011;3564;53.326;10.356;2022-09-20T09:22:30;6.53;;;1.90;;
7045;SDS011;3564;53.326;10.356;2022-09-20T09:30:23;6.73;;;2.27;;
7045;SDS011;3564;53.326;10.356;2022-09-20T09:33:17;7.53;;;2.50;;
7045;SDS011;3564;53.326;10.356;2022-09-20T09:36:06;7.70;;;2.40;;
7045;SDS011;3564;53.326;10.356;2022-09-20T09:38:44;6.23;;;2.40;;
7045;SDS011;3564;53.326;10.356;2022-09-20T09:43:41;5.43;;;1.83;;
7045;SDS011;3564;53.326;10.356;2022-09-20T09:48:42;6.27;;;2.27;;
7045;SDS011;3564;53.326;10.356;2022-09-20T09:51:14;8.20;;;1.90;;
7045;SDS011;3564;53.326;10.356;2022-09-20T09:53:42;8.30;;;2.40;;
7045;SDS011;3564;53.326;10.356;2022-09-20T09:56:25;6.17;;;2.67;;
7045;SDS011;3564;53.326;10.356;2022-09-20T10:04:16;5.70;;;1.90;;
7045;SDS011;3564;53.326;10.356;2022-09-20T10:09:52;6.60;;;1.73;;
7045;SDS011;3564;53.326;10.356;2022-09-20T10:12:35;7.77;;;2.10;;
7045;SDS011;3564;53.326;10.356;2022-09-20T10:15:23;8.60;;;1.90;;
7045;SDS011;3564;53.326;10.356;2022-09-20T10:20:56;13.77;;;2.33;;
7045;SDS011;3564;53.326;10.356;2022-09-20T10:23:48;4.83;;;2.13;;
7045;SDS011;3564;53.326;10.356;2022-09-20T10:41:30;3.87;;;1.50;;
7045;SDS011;3564;53.326;10.356;2022-09-20T10:46:40;6.33;;;1.80;;
7045;SDS011;3564;53.326;10.356;2022-09-20T10:55:03;8.20;;;2.00;;
7045;SDS011;3564;53.326;10.356;2022-09-20T11:08:37;6.30;;;1.83;;
7045;SDS011;3564;53.326;10.356;2022-09-20T11:11:10;6.73;;;2.27;;
7045;SDS011;3564;53.326;10.356;2022-09-20T11:18:55;7.03;;;1.90;;
7045;SDS011;3564;53.326;10.356;2022-09-20T11:26:50;2.50;;;1.17;;
7045;SDS011;3564;53.326;10.356;2022-09-20T11:29:45;5.27;;;1.67;;
7045;SDS011;3564;53.326;10.356;2022-09-20T11:32:38;6.30;;;1.57;;
7045;SDS011;3564;53.326;10.356;2022-09-20T11:35:19;6.50;;;1.90;;
7045;SDS011;3564;53.326;10.356;2022-09-20T11:40:47;6.47;;;1.67;;
7045;SDS011;3564;53.326;10.356;2022-09-20T11:43:24;6.23;;;1.90;;
7045;SDS011;3564;53.326;10.356;2022-09-20T11:45:53;6.97;;;2.20;;
7045;SDS011;3564;53.326;10.356;2022-09-20T11:51:03;6.30;;;1.57;;
7045;SDS011;3564;53.326;10.356;2022-09-20T11:56:30;4.53;;;1.67;;
7045;SDS011;3564;53.326;10.356;2022-09-20T11:58:59;5.80;;;1.80;;
7045;SDS011;3564;53.326;10.356;2022-09-20T12:01:34;4.63;;;1.23;;
7045;SDS011;3564;53.326;10.356;2022-09-20T12:04:24;4.50;;;1.37;;
7045;SDS011;3564;53.326;10.356;2022-09-20T12:09:28;6.27;;;1.60;;
7045;SDS011;3564;53.326;10.356;2022-09-20T12:12:16;6.20;;;1.87;;
7045;SDS011;3564;53.326;10.356;2022-09-20T12:14:54;6.97;;;2.00;;
7045;SDS011;3564;53.326;10.356;2022-09-20T12:26:01;4.70;;;1.80;;
7045;SDS011;3564;53.326;10.356;2022-09-20T12:28:31;4.63;;;1.57;;
7045;SDS011;3564;53.326;10.356;2022-09-20T12:36:21;5.90;;;1.57;;
7045;SDS011;3564;53.326;10.356;2022-09-20T12:39:21;3.73;;;1.53;;
7045;SDS011;3564;53.326;10.356;2022-09-20T12:47:01;3.17;;;1.43;;
7045;SDS011;3564;53.326;10.356;2022-09-20T12:49:40;5.93;;;1.50;;
7045;SDS011;3564;53.326;10.356;2022-09-20T12:58:02;3.80;;;1.50;;
7045;SDS011;3564;53.326;10.356;2022-09-20T13:00:34;6.23;;;1.87;;
7045;SDS011;3564;53.326;10.356;2022-09-20T13:14:19;12.50;;;1.93;;
7045;SDS011;3564;53.326;10.356;2022-09-20T13:16:55;7.07;;;1.73;;
7045;SDS011;3564;53.326;10.356;2022-09-20T13:19:55;4.10;;;2.10;;
7045;SDS011;3564;53.326;10.356;2022-09-20T13:22:25;3.33;;;1.30;;
7045;SDS011;3564;53.326;10.356;2022-09-20T13:25:02;5.10;;;1.47;;
7045;SDS011;3564;53.326;10.356;2022-09-20T13:27:38;6.00;;;1.70;;
7045;SDS011;3564;53.326;10.356;2022-09-20T13:32:46;2.93;;;1.60;;
7045;SDS011;3564;53.326;10.356;2022-09-20T13:35:14;2.87;;;1.40;;
7045;SDS011;3564;53.326;10.356;2022-09-20T13:40:41;2.57;;;1.40;;
7045;SDS011;3564;53.326;10.356;2022-09-20T13:43:16;5.53;;;1.80;;
7045;SDS011;3564;53.326;10.356;2022-09-20T13:45:46;4.80;;;1.80;;
7045;SDS011;3564;53.326;10.356;2022-09-20T13:48:17;3.60;;;1.57;;
7045;SDS011;3564;53.326;10.356;2022-09-20T13:50:43;5.70;;;1.87;;
7045;SDS011;3564;53.326;10.356;2022-09-20T13:53:16;3.83;;;1.80;;
7045;SDS011;3564;53.326;10.356;2022-09-20T13:55:42;6.43;;;1.80;;
7045;SDS011;3564;53.326;10.356;2022-09-20T14:00:53;4.70;;;1.63;;
7045;SDS011;3564;53.326;10.356;2022-09-20T14:03:22;2.23;;;1.30;;
7045;SDS011;3564;53.326;10.356;2022-09-20T14:05:50;4.70;;;1.37;;
7045;SDS011;3564;53.326;10.356;2022-09-20T14:08:30;6.63;;;1.83;;
7045;SDS011;3564;53.326;10.356;2022-09-20T14:13:41;6.47;;;1.70;;
7045;SDS011;3564;53.326;10.356;2022-09-20T14:16:11;5.37;;;1.73;;
7045;SDS011;3564;53.326;10.356;2022-09-20T14:18:38;5.27;;;1.50;;
7045;SDS011;3564;53.326;10.356;2022-09-20T14:21:08;3.03;;;1.40;;
7045;SDS011;3564;53.326;10.356;2022-09-20T14:23:51;3.87;;;1.37;;
7045;SDS011;3564;53.326;10.356;2022-09-20T14:26:25;4.53;;;1.60;;
7045;SDS011;3564;53.326;10.356;2022-09-20T14:28:54;4.53;;;1.93;;
7045;SDS011;3564;53.326;10.356;2022-09-20T14:31:23;4.13;;;2.00;;
7045;SDS011;3564;53.326;10.356;2022-09-20T14:33:52;7.67;;;2.20;;
7045;SDS011;3564;53.326;10.356;2022-09-20T14:36:25;3.90;;;1.37;;
7045;SDS011;3564;53.326;10.356;2022-09-20T14:38:54;6.13;;;2.40;;
7045;SDS011;3564;53.326;10.356;2022-09-20T14:41:24;9.43;;;2.10;;
7045;SDS011;3564;53.326;10.356;2022-09-20T14:43:53;6.63;;;2.33;;
7045;SDS011;3564;53.326;10.356;2022-09-20T14:46:27;7.13;;;2.30;;
7045;SDS011;3564;53.326;10.356;2022-09-20T14:49:17;6.37;;;2.40;;
7045;SDS011;3564;53.326;10.356;2022-09-20T14:51:50;3.70;;;1.30;;
7045;SDS011;3564;53.326;10.356;2022-09-20T14:54:26;6.30;;;1.40;;
7045;SDS011;3564;53.326;10.356;2022-09-20T14:56:54;3.77;;;1.70;;
7045;SDS011;3564;53.326;10.356;2022-09-20T14:59:34;5.23;;;1.53;;
7045;SDS011;3564;53.326;10.356;2022-09-20T15:04:37;5.00;;;1.90;;
7045;SDS011;3564;53.326;10.356;2022-09-20T15:07:05;8.37;;;3.10;;
7045;SDS011;3564;53.326;10.356;2022-09-20T15:09:32;4.43;;;2.33;;
7045;SDS011;3564;53.326;10.356;2022-09-20T15:14:25;4.80;;;2.10;;
7045;SDS011;3564;53.326;10.356;2022-09-20T15:16:51;4.80;;;2.20;;
7045;SDS011;3564;53.326;10.356;2022-09-20T15:19:17;3.83;;;1.50;;
7045;SDS011;3564;53.326;10.356;2022-09-20T15:21:42;7.57;;;2.10;;
7045;SDS011;3564;53.326;10.356;2022-09-20T15:24:08;3.97;;;1.83;;
7045;SDS011;3564;53.326;10.356;2022-09-20T15:26:34;3.93;;;1.30;;
7045;SDS011;3564;53.326;10.356;2022-09-20T15:29:00;3.17;;;1.30;;
7045;SDS011;3564;53.326;10.356;2022-09-20T15:31:25;3.83;;;1.60;;
7045;SDS011;3564;53.326;10.356;2022-09-20T15:33:52;4.17;;;1.60;;
7045;SDS011;3564;53.326;10.356;2022-09-20T15:36:18;4.50;;;1.60;;
7045;SDS011;3564;53.326;10.356;2022-09-20T15:38:43;3.47;;;1.30;;
7045;SDS011;3564;53.326;10.356;2022-09-20T15:41:11;3.07;;;1.03;;
7045;SDS011;3564;53.326;10.356;2022-09-20T15:43:37;2.77;;;1.20;;
7045;SDS011;3564;53.326;10.356;2022-09-20T15:46:20;1.47;;;1.20;;
7045;SDS011;3564;53.326;10.356;2022-09-20T15:48:47;2.37;;;1.20;;
7045;SDS011;3564;53.326;10.356;2022-09-20T15:51:13;2.77;;;1.27;;
7045;SDS011;3564;53.326;10.356;2022-09-20T15:54:01;4.27;;;1.40;;
7045;SDS011;3564;53.326;10.356;2022-09-20T15:56:27;4.37;;;1.73;;
7045;SDS011;3564;53.326;10.356;2022-09-20T15:58:58;4.27;;;1.30;;
7045;SDS011;3564;53.326;10.356;2022-09-20T16:01:27;4.67;;;1.40;;
7045;SDS011;3564;53.326;10.356;2022-09-20T16:04:16;2.97;;;1.27;;
7045;SDS011;3564;53.326;10.356;2022-09-20T16:06:45;3.10;;;1.50;;
7045;SDS011;3564;53.326;10.356;2022-09-20T16:09:13;2.00;;;1.40;;
7045;SDS011;3564;53.326;10.356;2022-09-20T16:11:39;4.17;;;1.60;;
7045;SDS011;3564;53.326;10.356;2022-09-20T16:14:05;3.03;;;1.60;;
7045;SDS011;3564;53.326;10.356;2022-09-20T16:16:31;3.53;;;1.80;;
7045;SDS011;3564;53.326;10.356;2022-09-20T16:18:58;4.80;;;1.63;;
7045;SDS011;3564;53.326;10.356;2022-09-20T16:21:44;3.73;;;1.50;;
7045;SDS011;3564;53.326;10.356;2022-09-20T16:24:18;4.03;;;2.00;;
7045;SDS011;3564;53.326;10.356;2022-09-20T16:26:46;3.60;;;1.90;;
7045;SDS011;3564;53.326;10.356;2022-09-20T16:29:13;2.27;;;1.80;;
7045;SDS011;3564;53.326;10.356;2022-09-20T16:31:47;4.67;;;3.27;;
7045;SDS011;3564;53.326;10.356;2022-09-20T16:36:54;7.50;;;5.10;;
7045;SDS011;3564;53.326;10.356;2022-09-20T16:39:22;4.60;;;2.60;;
7045;SDS011;3564;53.326;10.356;2022-09-20T16:41:53;6.13;;;3.27;;
7045;SDS011;3564;53.326;10.356;2022-09-20T16:44:21;4.40;;;2.50;;
7045;SDS011;3564;53.326;10.356;2022-09-20T16:46:47;3.67;;;2.20;;
7045;SDS011;3564;53.326;10.356;2022-09-20T16:49:13;3.83;;;2.10;;
7045;SDS011;3564;53.326;10.356;2022-09-20T16:51:41;4.07;;;2.30;;
7045;SDS011;3564;53.326;10.356;2022-09-20T16:54:08;3.40;;;2.10;;
7045;SDS011;3564;53.326;10.356;2022-09-20T16:56:36;4.07;;;2.10;;
7045;SDS011;3564;53.326;10.356;2022-09-20T16:59:04;3.67;;;2.03;;
7045;SDS011;3564;53.326;10.356;2022-09-20T17:01:31;2.93;;;1.43;;
7045;SDS011;3564;53.326;10.356;2022-09-20T17:03:58;4.97;;;1.77;;
7045;SDS011;3564;53.326;10.356;2022-09-20T17:06:24;4.17;;;1.93;;
7045;SDS011;3564;53.326;10.356;2022-09-20T17:08:51;6.73;;;2.00;;
7045;SDS011;3564;53.326;10.356;2022-09-20T17:11:21;4.90;;;1.83;;
7045;SDS011;3564;53.326;10.356;2022-09-20T17:13:52;4.23;;;1.70;;
7045;SDS011;3564;53.326;10.356;2022-09-20T17:16:20;3.77;;;1.87;;
7045;SDS011;3564;53.326;10.356;2022-09-20T17:18:59;3.53;;;1.87;;
7045;SDS011;3564;53.326;10.356;2022-09-20T17:21:27;2.17;;;1.50;;
7045;SDS011;3564;53.326;10.356;2022-09-20T17:23:54;4.27;;;1.77;;
7045;SDS011;3564;53.326;10.356;2022-09-20T17:26:28;4.13;;;2.10;;
7045;SDS011;3564;53.326;10.356;2022-09-20T17:28:57;2.80;;;1.67;;
7045;SDS011;3564;53.326;10.356;2022-09-20T17:31:29;4.73;;;2.40;;
7045;SDS011;3564;53.326;10.356;2022-09-20T17:33:57;3.47;;;1.60;;
7045;SDS011;3564;53.326;10.356;2022-09-20T17:36:25;5.17;;;1.80;;
7045;SDS011;3564;53.326;10.356;2022-09-20T17:38:53;2.53;;;1.73;;
7045;SDS011;3564;53.326;10.356;2022-09-20T17:41:21;3.33;;;1.40;;
7045;SDS011;3564;53.326;10.356;2022-09-20T17:43:48;4.00;;;1.80;;
7045;SDS011;3564;53.326;10.356;2022-09-20T17:46:18;3.63;;;1.60;;
7045;SDS011;3564;53.326;10.356;2022-09-20T17:48:46;2.40;;;1.33;;
7045;SDS011;3564;53.326;10.356;2022-09-20T17:51:16;3.83;;;1.13;;
7045;SDS011;3564;53.326;10.356;2022-09-20T17:53:43;4.53;;;1.50;;
7045;SDS011;3564;53.326;10.356;2022-09-20T17:56:11;3.10;;;1.10;;
7045;SDS011;3564;53.326;10.356;2022-09-20T17:58:38;2.47;;;1.27;;
7045;SDS011;3564;53.326;10.356;2022-09-20T18:01:04;2.07;;;1.10;;
7045;SDS011;3564;53.326;10.356;2022-09-20T18:03:33;2.20;;;1.20;;
7045;SDS011;3564;53.326;10.356;2022-09-20T18:06:18;5.20;;;1.30;;
7045;SDS011;3564;53.326;10.356;2022-09-20T18:09:01;2.20;;;1.40;;
7045;SDS011;3564;53.326;10.356;2022-09-20T18:11:39;5.00;;;1.50;;
7045;SDS011;3564;53.326;10.356;2022-09-20T18:14:25;3.50;;;1.30;;
7045;SDS011;3564;53.326;10.356;2022-09-20T18:16:55;3.43;;;1.50;;
7045;SDS011;3564;53.326;10.356;2022-09-20T18:19:24;5.10;;;1.53;;
7045;SDS011;3564;53.326;10.356;2022-09-20T18:21:56;3.63;;;2.00;;
7045;SDS011;3564;53.326;10.356;2022-09-20T18:24:27;3.47;;;1.93;;
7045;SDS011;3564;53.326;10.356;2022-09-20T18:26:57;5.37;;;2.10;;
7045;SDS011;3564;53.326;10.356;2022-09-20T18:29:24;3.67;;;1.80;;
7045;SDS011;3564;53.326;10.356;2022-09-20T18:31:52;3.50;;;1.50;;
7045;SDS011;3564;53.326;10.356;2022-09-20T18:34:19;5.23;;;1.80;;
7045;SDS011;3564;53.326;10.356;2022-09-20T18:36:47;2.13;;;1.40;;
7045;SDS011;3564;53.326;10.356;2022-09-20T18:39:16;6.73;;;1.30;;
7045;SDS011;3564;53.326;10.356;2022-09-20T18:41:43;3.90;;;1.10;;
7045;SDS011;3564;53.326;10.356;2022-09-20T18:44:09;3.37;;;1.40;;
7045;SDS011;3564;53.326;10.356;2022-09-20T18:46:38;6.93;;;1.70;;
7045;SDS011;3564;53.326;10.356;2022-09-20T18:49:05;3.03;;;1.47;;
7045;SDS011;3564;53.326;10.356;2022-09-20T18:51:33;8.40;;;1.83;;
7045;SDS011;3564;53.326;10.356;2022-09-20T18:53:59;3.47;;;1.30;;
7045;SDS011;3564;53.326;10.356;2022-09-20T18:56:29;2.60;;;1.53;;
7045;SDS011;3564;53.326;10.356;2022-09-20T18:59:00;3.77;;;1.60;;
7045;SDS011;3564;53.326;10.356;2022-09-20T19:12:44;6.83;;;2.80;;
7045;SDS011;3564;53.326;10.356;2022-09-20T19:23:49;3.00;;;1.63;;
7045;SDS011;3564;53.326;10.356;2022-09-20T19:26:32;4.90;;;2.10;;
7045;SDS011;3564;53.326;10.356;2022-09-20T19:29:03;5.00;;;2.03;;
7045;SDS011;3564;53.326;10.356;2022-09-20T19:31:42;3.30;;;1.83;;
7045;SDS011;3564;53.326;10.356;2022-09-20T19:34:12;6.90;;;1.60;;
7045;SDS011;3564;53.326;10.356;2022-09-20T19:39:34;3.47;;;1.67;;
7045;SDS011;3564;53.326;10.356;2022-09-20T19:42:23;3.83;;;1.80;;
7045;SDS011;3564;53.326;10.356;2022-09-20T19:48:06;3.27;;;1.60;;
7045;SDS011;3564;53.326;10.356;2022-09-20T19:50:50;2.93;;;1.70;;
7045;SDS011;3564;53.326;10.356;2022-09-20T19:53:18;3.50;;;1.60;;
7045;SDS011;3564;53.326;10.356;2022-09-20T19:56:16;2.33;;;1.63;;
7045;SDS011;3564;53.326;10.356;2022-09-20T19:58:45;4.67;;;1.83;;
7045;SDS011;3564;53.326;10.356;2022-09-20T20:01:20;3.37;;;1.60;;
7045;SDS011;3564;53.326;10.356;2022-09-20T20:03:51;5.73;;;1.90;;
7045;SDS011;3564;53.326;10.356;2022-09-20T20:06:31;4.23;;;2.00;;
7045;SDS011;3564;53.326;10.356;2022-09-20T20:09:24;3.53;;;1.77;;
7045;SDS011;3564;53.326;10.356;2022-09-20T20:12:03;5.33;;;1.97;;
7045;SDS011;3564;53.326;10.356;2022-09-20T20:20:15;3.73;;;2.10;;
7045;SDS011;3564;53.326;10.356;2022-09-20T20:23:01;3.80;;;1.70;;
7045;SDS011;3564;53.326;10.356;2022-09-20T20:26:15;3.17;;;1.67;;
7045;SDS011;3564;53.326;10.356;2022-09-20T20:28:45;4.60;;;1.70;;
7045;SDS011;3564;53.326;10.356;2022-09-20T20:31:12;2.97;;;1.70;;
7045;SDS011;3564;53.326;10.356;2022-09-20T20:33:38;3.83;;;1.73;;
7045;SDS011;3564;53.326;10.356;2022-09-20T20:36:06;2.37;;;1.70;;
7045;SDS011;3564;53.326;10.356;2022-09-20T20:38:33;3.90;;;2.03;;
7045;SDS011;3564;53.326;10.356;2022-09-20T20:41:05;3.87;;;1.30;;
7045;SDS011;3564;53.326;10.356;2022-09-20T20:43:31;3.57;;;1.40;;
7045;SDS011;3564;53.326;10.356;2022-09-20T20:46:00;4.17;;;1.77;;
7045;SDS011;3564;53.326;10.356;2022-09-20T20:48:45;2.27;;;1.47;;
7045;SDS011;3564;53.326;10.356;2022-09-20T20:51:31;3.23;;;1.60;;
7045;SDS011;3564;53.326;10.356;2022-09-20T20:53:58;3.30;;;1.73;;
7045;SDS011;3564;53.326;10.356;2022-09-20T20:56:27;4.97;;;1.50;;
7045;SDS011;3564;53.326;10.356;2022-09-20T20:58:54;2.10;;;1.50;;
7045;SDS011;3564;53.326;10.356;2022-09-20T21:01:25;3.97;;;1.73;;
7045;SDS011;3564;53.326;10.356;2022-09-20T21:04:14;6.43;;;1.70;;
7045;SDS011;3564;53.326;10.356;2022-09-20T21:06:40;6.10;;;1.70;;
7045;SDS011;3564;53.326;10.356;2022-09-20T21:09:07;4.57;;;1.83;;
7045;SDS011;3564;53.326;10.356;2022-09-20T21:11:35;3.47;;;1.73;;
7045;SDS011;3564;53.326;10.356;2022-09-20T21:14:19;3.47;;;1.70;;
7045;SDS011;3564;53.326;10.356;2022-09-20T21:16:45;1.87;;;1.33;;
7045;SDS011;3564;53.326;10.356;2022-09-20T21:19:12;3.70;;;1.63;;